Weather reports worldwide

Advertisment
Great Dun Fell, United Kingdom (3227): temperature & dewpoint: 17.01.2019 02:00:00 - 23.01.2019 02:00:00 (GMT)Great Dun Fell, United Kingdom (3227): wind speed & gusts: 17.01.2019 02:00:00 - 23.01.2019 02:00:00 (GMT)Great Dun Fell, United Kingdom (3227): wind direction: 17.01.2019 02:00:00 - 23.01.2019 02:00:00 (GMT)
Date & Time tt [°C] td [°C] ff [km/h] ff [kn] fx [km/h] fx [kn] dd
23.01.2019 02:00:00 -5,8 -5,8 26 14 - - NNW
23.01.2019 01:00:00 -5,7 -5,7 15 8 - - NW
23.01.2019 00:00:00 -4,6 -4,6 18 10 - - WNW
22.01.2019 23:00:00 -4,7 -4,7 16 9 - - W
22.01.2019 22:00:00 -4,7 -4,7 22 12 - - W
22.01.2019 21:00:00 -4,4 -4,4 24 13 - - WNW
22.01.2019 20:00:00 -4,1 -4,1 18 10 - - W
22.01.2019 19:00:00 -4,2 -4,2 22 12 - - W
22.01.2019 18:00:00 -3,9 -3,9 29 16 50 27 W
22.01.2019 17:00:00 -3,6 -3,6 31 17 46 25 W
22.01.2019 16:00:00 -3,5 -3,5 39 21 50 27 W
22.01.2019 15:00:00 -3,2 -3,2 35 19 - - W
22.01.2019 14:00:00 -3,2 -3,3 31 17 - - W
22.01.2019 13:00:00 -2,7 -2,8 37 20 46 25 W
22.01.2019 12:00:00 -2,9 -3,0 35 19 55 30 W
22.01.2019 11:00:00 -3,2 -3,3 35 19 52 28 W
22.01.2019 10:00:00 -3,4 -3,6 44 24 57 31 W
22.01.2019 09:00:00 -3,5 -3,6 52 28 67 36 W
22.01.2019 08:00:00 -3,3 -3,4 52 28 67 36 W
22.01.2019 07:00:00 -2,1 -2,3 52 28 63 34 W
22.01.2019 06:00:00 -3,1 -3,2 50 27 61 33 W
22.01.2019 05:00:00 -3,1 -3,2 54 29 63 34 W
22.01.2019 04:00:00 -3,1 -3,2 46 25 67 36 W
22.01.2019 03:00:00 -3,1 -3,2 42 23 61 33 W
22.01.2019 02:00:00 -3,3 -3,4 35 19 46 25 WNW
22.01.2019 01:00:00 -2,5 -2,7 42 23 50 27 W
22.01.2019 00:00:00 -2,1 -2,2 46 25 76 41 WSW
21.01.2019 23:00:00 -1,4 -1,5 61 33 85 46 SW
21.01.2019 22:00:00 -1,1 -1,3 68 37 96 52 SSW
21.01.2019 21:00:00 -0,8 -1,0 72 39 91 49 SSW
21.01.2019 20:00:00 -1,2 -1,4 76 41 91 49 SSW
21.01.2019 19:00:00 -0,5 -0,7 80 43 102 55 SW
21.01.2019 18:00:00 -1,3 -1,4 68 37 81 44 SW
21.01.2019 17:00:00 -1,6 -1,8 61 33 74 40 SW
21.01.2019 16:00:00 -1,7 -1,8 61 33 72 39 SW
21.01.2019 15:00:00 -1,6 -1,8 59 32 78 42 SW
21.01.2019 14:00:00 -1,3 -1,4 54 29 65 35 SW
21.01.2019 13:00:00 -2,1 -2,3 48 26 61 33 SW
21.01.2019 12:00:00 -2,3 -2,4 46 25 54 29 SW
21.01.2019 11:00:00 -2,2 -2,3 42 23 52 28 SW
21.01.2019 10:00:00 -2,2 -2,3 44 24 50 27 SW
21.01.2019 09:00:00 -2,5 -2,5 34 18 - - SW
21.01.2019 08:00:00 -3,0 -3,0 31 17 - - SW
21.01.2019 07:00:00 -3,5 -3,5 21 11 - - SW
21.01.2019 06:00:00 -3,6 -3,6 18 10 - - WSW
21.01.2019 05:00:00 -3,7 -3,7 15 8 - - SW
21.01.2019 04:00:00 -3,9 -3,9 13 7 - - SW
21.01.2019 03:00:00 -4,8 -4,8 8 4 - - WSW
21.01.2019 02:00:00 -3,9 -3,9 8 4 - - NE
21.01.2019 01:00:00 -2,6 -2,7 15 8 - - NE
21.01.2019 00:00:00 -2,4 -2,5 16 9 - - NNE
20.01.2019 23:00:00 -2,3 -2,4 18 10 - - N
20.01.2019 22:00:00 -2,0 -2,2 13 7 - - NE
20.01.2019 21:00:00 -1,4 -1,4 28 15 - - ENE
20.01.2019 20:00:00 -0,8 -0,8 29 16 - - NE
20.01.2019 19:00:00 -0,2 -0,2 21 11 - - N
20.01.2019 18:00:00 -0,1 -0,1 26 14 - - NW
20.01.2019 17:00:00 0,0 0,0 22 12 - - NW
20.01.2019 16:00:00 -0,2 -0,2 28 15 - - NW
20.01.2019 15:00:00 -0,4 -0,4 37 20 - - WNW
20.01.2019 14:00:00 -0,7 -0,7 31 17 - - WNW
20.01.2019 13:00:00 -0,4 - 21 11 - - W
20.01.2019 12:00:00 -0,5 - 26 14 - - WNW
20.01.2019 11:00:00 -0,7 -0,7 22 12 - - WNW
20.01.2019 10:00:00 -1,5 -1,5 24 13 - - NW
20.01.2019 09:00:00 -1,6 -1,6 24 13 - - NW
20.01.2019 08:00:00 -1,1 -1,1 18 10 - - NW
20.01.2019 07:00:00 -1,3 -1,3 13 7 - - NW
20.01.2019 06:00:00 -1,0 -1,0 13 7 - - WNW
20.01.2019 05:00:00 -1,0 -1,0 9 5 - - W
20.01.2019 04:00:00 -0,6 -0,6 9 5 - - WSW
20.01.2019 03:00:00 -0,7 -0,7 8 4 - - WSW
20.01.2019 02:00:00 -0,4 -0,4 9 5 - - SW
20.01.2019 01:00:00 -0,6 -0,6 9 5 - - SW
20.01.2019 00:00:00 -0,9 -0,9 11 6 - - S
19.01.2019 23:00:00 -0,9 -0,9 13 7 - - S
19.01.2019 22:00:00 -1,3 -1,3 13 7 - - SSE
19.01.2019 21:00:00 -1,9 -1,9 11 6 - - SE
19.01.2019 20:00:00 -0,9 -0,9 15 8 - - S
19.01.2019 19:00:00 -1,0 -1,0 16 9 - - SSE
19.01.2019 18:00:00 -1,1 -1,1 13 7 - - SSE
19.01.2019 17:00:00 -1,1 -1,1 15 8 - - SE
19.01.2019 16:00:00 -1,8 -1,8 11 6 - - ESE
19.01.2019 15:00:00 -0,8 - 15 8 - - SSE
19.01.2019 14:00:00 -0,3 - 18 10 - - S
19.01.2019 13:00:00 -0,3 - 16 9 - - SW
19.01.2019 12:00:00 -0,2 -0,2 24 13 - - S
19.01.2019 11:00:00 -0,3 -0,3 18 10 - - S
19.01.2019 10:00:00 -1,2 -1,2 18 10 - - S
19.01.2019 09:00:00 -1,6 -1,6 24 13 - - S
19.01.2019 08:00:00 -1,6 -1,6 22 12 - - S
19.01.2019 07:00:00 -1,4 -1,6 24 13 - - SSW
19.01.2019 06:00:00 -1,3 -1,5 24 13 - - SSW
19.01.2019 05:00:00 -1,7 -1,8 28 15 - - SSW
19.01.2019 04:00:00 -2,0 -2,1 31 17 - - SSW
19.01.2019 03:00:00 -2,2 -2,3 35 19 - - SSW
19.01.2019 02:00:00 -2,4 -2,6 31 17 - - SSW
19.01.2019 01:00:00 -2,7 -2,8 24 13 - - S
19.01.2019 00:00:00 -2,6 -2,7 39 21 50 27 S
18.01.2019 23:00:00 -2,7 -2,8 44 24 52 28 S
18.01.2019 22:00:00 -2,6 -2,7 41 22 50 27 S
18.01.2019 21:00:00 -2,5 -2,6 41 22 54 29 S
18.01.2019 20:00:00 -2,5 -2,6 39 21 48 26 S
18.01.2019 19:00:00 -2,4 -2,5 41 22 57 31 S
18.01.2019 18:00:00 -2,2 -2,3 48 26 67 36 S
18.01.2019 17:00:00 -2,3 -2,5 57 31 70 38 S
18.01.2019 16:00:00 -2,4 -2,5 61 33 72 39 S
18.01.2019 15:00:00 -2,7 -2,9 46 25 59 32 S
18.01.2019 14:00:00 -2,6 -2,7 48 26 68 37 S
18.01.2019 13:00:00 -2,3 -2,4 55 30 68 37 S
18.01.2019 12:00:00 -1,9 -2,1 52 28 63 34 SSW
18.01.2019 11:00:00 -3,1 -3,3 48 26 65 35 S
18.01.2019 10:00:00 -3,9 -4,0 44 24 54 29 S
18.01.2019 09:00:00 -4,3 -4,4 37 20 54 29 S
18.01.2019 08:00:00 -4,4 -4,4 46 25 55 30 S
18.01.2019 07:00:00 -3,9 -3,9 48 26 55 30 S
18.01.2019 06:00:00 -3,9 -3,9 41 22 48 26 S
18.01.2019 05:00:00 -3,3 -3,3 39 21 48 26 S
18.01.2019 04:00:00 -2,9 -2,9 35 19 - - S
18.01.2019 03:00:00 -3,0 -3,0 35 19 - - S
18.01.2019 02:00:00 -2,8 -2,8 28 15 - - S
18.01.2019 01:00:00 -2,5 -2,5 24 13 - - S
18.01.2019 00:00:00 -2,9 -2,9 15 8 - - S
17.01.2019 23:00:00 -3,0 -3,1 8 4 - - ESE
17.01.2019 22:00:00 -3,0 -3,1 9 5 - - NE
17.01.2019 21:00:00 -3,5 -4,2 9 5 - - NE
17.01.2019 20:00:00 -3,8 -4,6 16 9 - - NE
17.01.2019 19:00:00 -4,2 -4,9 21 11 - - NE
17.01.2019 18:00:00 -4,4 -5,1 21 11 46 25 N
17.01.2019 17:00:00 -4,4 -5,0 34 18 46 25 NNE
17.01.2019 16:00:00 -4,6 -5,1 35 19 - - N
17.01.2019 15:00:00 -4,4 -5,4 34 18 - - N
17.01.2019 14:00:00 -4,5 -5,5 31 17 50 27 N
17.01.2019 13:00:00 -4,7 -5,5 44 24 57 31 N
17.01.2019 12:00:00 -4,9 -5,9 37 20 57 31 N
17.01.2019 11:00:00 -5,2 -6,3 44 24 67 36 N
17.01.2019 10:00:00 -5,8 -6,8 52 28 70 38 N
17.01.2019 09:00:00 -6,0 -6,9 57 31 72 39 NNW
17.01.2019 08:00:00 -6,3 -7,1 63 34 80 43 NNW
17.01.2019 07:00:00 -6,4 -7,2 57 31 78 42 NNW
17.01.2019 06:00:00 -6,5 -7,4 63 34 81 44 NNW
17.01.2019 05:00:00 -6,7 -7,4 59 32 76 41 NNW
17.01.2019 04:00:00 -6,5 -7,1 55 30 72 39 N
17.01.2019 03:00:00 -5,5 -6,0 41 22 65 35 N
17.01.2019 02:00:00 -3,4 -3,6 35 19 76 41 N

tt = temperature
td = dewpoint
ff = wind speed
fx = gusts
dd = wind direction

Next stations